createdAt,value
2017-07-27T19:26:01.521Z,0.00
2017-07-27T19:28:27.418Z,0.00
2017-07-27T19:30:53.310Z,0.00
2017-07-27T19:44:47.125Z,19.56
2017-07-27T19:47:12.999Z,19.12
2017-07-27T19:49:38.907Z,18.86
2017-07-27T19:52:04.987Z,18.61
2017-07-27T19:54:30.870Z,18.57
2017-07-27T19:56:56.815Z,18.70
2017-07-27T19:59:22.724Z,18.79
2017-07-27T20:01:48.606Z,18.83
2017-07-27T20:04:14.438Z,18.83
2017-07-27T20:06:40.495Z,18.70
2017-07-27T20:09:06.540Z,18.53
2017-07-27T20:11:32.416Z,18.48
2017-07-27T20:13:58.259Z,18.43
2017-07-27T20:16:24.077Z,18.51
2017-07-27T20:18:49.904Z,18.30
2017-07-27T20:21:15.753Z,18.55
2017-07-27T20:23:41.780Z,18.46
2017-07-27T20:26:07.624Z,18.55
2017-07-27T20:28:33.561Z,18.47
2017-07-27T20:30:59.455Z,18.50
2017-07-27T20:33:25.294Z,18.46
2017-07-27T20:35:51.319Z,18.47
2017-07-27T20:38:17.291Z,18.41
2017-07-27T20:40:43.152Z,18.37
2017-07-27T20:43:09.092Z,18.24
2017-07-27T20:45:35.005Z,18.13
2017-07-27T20:48:00.943Z,18.10
2017-07-27T20:50:26.765Z,17.81
2017-07-27T20:52:52.646Z,17.73
2017-07-27T20:55:18.731Z,17.72
2017-07-27T20:57:44.596Z,18.16
2017-07-27T21:00:10.590Z,17.58
2017-07-27T21:02:36.457Z,17.49
2017-07-27T21:05:02.376Z,17.33
2017-07-27T21:07:28.332Z,17.58
2017-07-27T21:09:54.170Z,17.48
2017-07-27T21:12:20.061Z,17.41
2017-07-27T21:14:45.979Z,17.33
2017-07-27T21:17:11.794Z,17.40
2017-07-27T21:19:37.672Z,17.33
2017-07-27T21:22:03.617Z,17.40
2017-07-27T21:24:29.502Z,17.32
2017-07-27T21:26:55.402Z,17.26
2017-07-27T21:29:21.275Z,17.23
2017-07-27T21:31:47.168Z,17.18
2017-07-27T21:34:12.992Z,17.34
2017-07-27T21:36:39.032Z,17.32
2017-07-27T21:39:05.020Z,17.30
2017-07-27T21:41:30.886Z,17.32
2017-07-27T21:43:56.785Z,17.30
2017-07-27T21:46:23.012Z,17.22
2017-07-27T21:48:48.873Z,17.16
2017-07-27T21:51:14.715Z,17.27
2017-07-27T21:53:40.593Z,17.25
2017-07-27T21:56:06.512Z,17.23
2017-07-27T21:58:32.399Z,17.21
2017-07-27T22:00:58.429Z,17.14
2017-07-27T22:03:24.384Z,17.18
2017-07-27T22:05:50.263Z,17.20
2017-07-27T22:08:16.096Z,17.21
2017-07-27T22:10:42.022Z,17.12
2017-07-27T22:13:07.879Z,16.97
2017-07-27T22:15:33.779Z,17.25
2017-07-27T22:17:59.750Z,17.21
2017-07-27T22:20:25.583Z,17.13
2017-07-27T22:22:51.402Z,17.06
2017-07-27T22:25:17.237Z,17.01
2017-07-27T22:27:43.183Z,17.05
2017-07-27T22:30:09.059Z,16.94
2017-07-27T22:32:34.916Z,17.07
2017-07-27T22:35:00.833Z,17.07
2017-07-27T22:37:26.892Z,16.99
2017-07-27T22:39:52.717Z,17.00
2017-07-27T22:42:18.538Z,16.90
2017-07-27T22:44:44.378Z,16.92
2017-07-27T22:47:10.212Z,16.92
2017-07-27T22:49:36.037Z,16.94
2017-07-27T22:52:01.983Z,16.90
2017-07-27T22:54:27.836Z,16.89
2017-07-27T22:56:53.699Z,16.76
2017-07-27T22:59:19.608Z,16.73
2017-07-27T23:01:45.462Z,16.75
2017-07-27T23:04:11.302Z,16.79
2017-07-27T23:06:37.153Z,16.71
2017-07-27T23:09:03.120Z,16.77
2017-07-27T23:11:31.767Z,16.45
2017-07-27T23:13:57.611Z,16.72
2017-07-27T23:16:23.515Z,16.75
2017-07-27T23:18:49.318Z,16.73
2017-07-27T23:21:15.137Z,16.60
2017-07-27T23:23:40.991Z,16.73
2017-07-27T23:26:06.907Z,16.56
2017-07-27T23:28:32.733Z,16.48
2017-07-27T23:30:58.622Z,16.43
2017-07-27T23:33:24.439Z,16.72
2017-07-27T23:35:50.282Z,16.68
2017-07-27T23:38:16.346Z,16.60
2017-07-27T23:40:42.208Z,16.52
2017-07-27T23:43:08.035Z,16.42
2017-07-27T23:45:33.934Z,16.44
2017-07-27T23:47:59.877Z,16.43
2017-07-27T23:50:25.788Z,16.36
2017-07-27T23:52:51.646Z,16.40
2017-07-27T23:55:17.539Z,16.38
2017-07-27T23:57:43.369Z,16.32
